Huvudsida
METAR-TAF:

METAR-TAF

Flygplatser :

Treviso, Italien

latitud: 45-41N, longitud: 012-06E, höjd: 45 m

Aktuellt väderrapport

Denna rapport gjordes för 1 timme och 21 minuter sedan, klockan 20:55 UTC
Temperatur 3°C
Fuktighet 87%
Tryck 1026 hPa
Sikt 10 km eller mer
Inga moln under 1 500 m eller inga cumulonimbus

METAR: LIPS 052055Z /////KT CAVOK 03/01 Q1026 RMK SKC VIS MIN 9999 WIND THR26 31004KT WIND THR08 35005KT BLU

Tid: 23:16 (22:16 UTC)

Väderprognos

Denna rapport gjordes för 2 timmar och 16 minuter sedan, klockan 20:00 UTC
Prognos gäller från 05 kl. 21 UTC till 06 kl. 06 UTC
Vind 3 kt varierande vindriktning
Sikt 10 km eller mer
Inga moln under 1 500 m eller inga cumulonimbus
Sannolikhet 30% :
Temporärt
från 06 kl. 00 UTC till 06 kl. 06 UTC
Sikt: 4000 m
fuktdis

TAF: LIPS 052000Z 0521/0606 VRB03KT CAVOK PROB30 TEMPO 0600/0606 4000 BR NSC

Aktuella väderrapporter och prognoser från 4000 flygplatser (METAR- och TAF-rapporter).

De tillgängliga stationerna syns som gula och röda prickar på kartan.

För musen över prickarna för att se namnen på stationerna.

Klicka sedan för att få väderrapporter och prognoser.

För att ändra kartan: Klicka på de gröna knapparna med ett svart kors på för att zooma in; den gröna knappen med ett streck på för att zooma ut; eller på de gröna pilarna för angränsande kartor.


METAR-TAF: